Time;durP1;ratioP1;P1;durP2;ratioP2;P2;SDS_P1;SDS_P2;PMS_P1;PMS_P2;Temp;Humidity;BMP_temperature;BMP_pressure;BME280_temperature;BME280_humidity;BME280_pressure;Samples;Min_cycle;Max_cycle;Signal;HPM_P1;HPM_P2
2022/10/10 00:01:22;;;;;;;3.80;2.42;;;8.60;99.90;;;;;;4976589;28;20037;-58
2022/10/10 00:03:48;;;;;;;7.63;2.90;;;8.60;99.90;;;;;;4987819;28;20034;-58
2022/10/10 00:06:15;;;;;;;3.95;2.60;;;8.70;99.90;;;;;;4985474;28;20029;-59
2022/10/10 00:08:42;;;;;;;3.47;2.40;;;8.80;99.90;;;;;;4976011;28;20027;-58
2022/10/10 00:11:08;;;;;;;7.35;3.47;;;8.80;99.90;;;;;;4985831;28;20031;-61
2022/10/10 00:13:34;;;;;;;6.00;3.25;;;8.80;99.90;;;;;;4981834;28;20515;-61
2022/10/10 00:16:00;;;;;;;4.90;3.05;;;8.80;99.90;;;;;;4977722;28;20550;-59
2022/10/10 00:18:26;;;;;;;6.18;3.00;;;8.70;99.90;;;;;;4991336;28;20026;-59
2022/10/10 00:20:52;;;;;;;7.65;3.13;;;8.70;99.90;;;;;;4987897;28;20161;-59
2022/10/10 00:23:18;;;;;;;5.28;3.63;;;8.80;99.90;;;;;;4977395;28;20404;-60
2022/10/10 00:25:43;;;;;;;5.93;2.95;;;8.70;99.90;;;;;;4980447;28;20022;-58
2022/10/10 00:28:09;;;;;;;6.90;3.10;;;8.60;99.90;;;;;;4974293;28;20038;-59
2022/10/10 00:30:35;;;;;;;4.60;2.90;;;8.70;99.90;;;;;;4985174;28;20023;-58
2022/10/10 00:33:00;;;;;;;5.15;2.42;;;8.70;99.90;;;;;;4970526;28;20038;-59
2022/10/10 00:35:27;;;;;;;4.25;2.75;;;8.80;99.90;;;;;;4989064;28;20101;-59
2022/10/10 00:37:53;;;;;;;5.45;3.05;;;8.80;99.90;;;;;;4984625;28;20424;-58
2022/10/10 00:40:19;;;;;;;5.63;3.22;;;8.80;99.90;;;;;;4974907;28;20482;-61
2022/10/10 00:42:44;;;;;;;7.80;3.95;;;8.70;99.90;;;;;;4980107;28;20039;-58
2022/10/10 00:45:37;;;;;;;7.22;2.92;;;8.70;99.90;;;;;;4979904;28;20043;-60
2022/10/10 00:48:10;;;;;;;7.00;2.97;;;8.60;99.90;;;;;;4973494;28;20072;-58
2022/10/10 00:50:47;;;;;;;10.20;3.17;;;8.60;99.90;;;;;;4979315;28;20025;-58
2022/10/10 00:53:16;;;;;;;5.35;2.72;;;8.60;99.90;;;;;;4969045;28;20576;-57
2022/10/10 00:55:42;;;;;;;5.75;3.00;;;8.60;99.90;;;;;;4982592;28;20022;-58
2022/10/10 00:58:09;;;;;;;7.63;2.78;;;8.70;99.90;;;;;;4984481;28;20394;-58
2022/10/10 01:00:34;;;;;;;5.68;2.95;;;8.70;99.90;;;;;;4980565;28;20027;-58
2022/10/10 01:03:00;;;;;;;6.47;2.63;;;8.70;99.90;;;;;;4975572;28;20038;-59
2022/10/10 01:05:26;;;;;;;5.95;2.30;;;8.70;99.90;;;;;;4987667;28;20030;-58
2022/10/10 01:07:52;;;;;;;6.80;3.08;;;8.70;99.90;;;;;;4989868;28;20475;-61
2022/10/10 01:10:21;;;;;;;6.22;2.65;;;8.70;99.90;;;;;;4987289;28;20125;-58
2022/10/10 01:13:05;;;;;;;6.05;3.42;;;8.70;99.90;;;;;;4976034;28;20031;-60
2022/10/10 01:15:37;;;;;;;10.45;3.10;;;8.70;99.90;;;;;;4980932;28;20031;-58
2022/10/10 01:18:25;;;;;;;6.15;2.47;;;8.70;99.90;;;;;;4976945;28;20042;-59
2022/10/10 01:21:02;;;;;;;4.82;2.80;;;8.70;99.90;;;;;;4978558;28;20046;-58
2022/10/10 01:23:54;;;;;;;5.97;2.85;;;8.70;99.90;;;;;;4981125;28;20034;-59
2022/10/10 01:26:47;;;;;;;8.63;2.80;;;8.70;99.90;;;;;;4969727;28;20047;-59
2022/10/10 01:30:00;;;;;;;5.93;2.60;;;8.70;99.90;;;;;;4964897;28;20038;-58
2022/10/10 01:32:33;;;;;;;4.03;2.78;;;8.80;99.90;;;;;;4966294;28;20479;-59
2022/10/10 01:35:07;;;;;;;5.43;2.67;;;8.90;99.90;;;;;;4977975;28;20027;-58
2022/10/10 01:37:54;;;;;;;2.55;1.67;;;9.00;99.90;;;;;;4986525;28;20041;-57
2022/10/10 01:40:52;;;;;;;4.53;2.15;;;9.20;99.90;;;;;;4982859;28;20046;-59
2022/10/10 01:43:18;;;;;;;1.95;1.52;;;9.40;99.90;;;;;;4971908;28;20495;-58
2022/10/10 01:45:46;;;;;;;2.08;1.20;;;9.90;99.90;;;;;;4977376;28;20050;-59
2022/10/10 01:48:13;;;;;;;3.95;1.70;;;10.10;99.90;;;;;;4979870;28;20454;-61
2022/10/10 01:51:24;;;;;;;2.35;1.02;;;10.50;99.90;;;;;;4977227;28;20084;-58
2022/10/10 01:54:05;;;;;;;3.83;1.17;;;10.90;99.90;;;;;;4969247;28;20062;-58
2022/10/10 01:56:49;;;;;;;2.40;0.90;;;11.60;99.90;;;;;;4970294;28;20073;-59
2022/10/10 01:59:23;;;;;;;1.85;0.93;;;11.80;99.90;;;;;;4976115;28;20042;-59
2022/10/10 02:01:54;;;;;;;3.20;0.93;;;12.00;99.90;;;;;;4979467;28;20042;-59
2022/10/10 02:04:31;;;;;;;6.45;0.93;;;12.20;99.90;;;;;;4981727;28;20041;-60
2022/10/10 02:07:14;;;;;;;2.88;0.73;;;12.20;99.90;;;;;;4971506;28;20038;-59
2022/10/10 02:09:43;;;;;;;2.25;1.25;;;12.40;99.90;;;;;;4970895;28;20030;-60
2022/10/10 02:12:11;;;;;;;1.55;1.15;;;12.50;99.90;;;;;;4984406;28;20486;-59
2022/10/10 02:14:41;;;;;;;1.52;0.60;;;12.70;99.90;;;;;;4978990;28;20030;-59
2022/10/10 02:17:11;;;;;;;3.97;1.00;;;12.70;99.90;;;;;;4968348;28;20042;-60
2022/10/10 02:19:41;;;;;;;0.70;0.55;;;12.80;99.90;;;;;;4981520;28;20026;-59
2022/10/10 02:22:08;;;;;;;5.03;0.75;;;12.90;99.90;;;;;;4977212;28;20042;-58
2022/10/10 02:24:34;;;;;;;3.55;1.15;;;13.00;99.90;;;;;;4982367;28;20065;-59
2022/10/10 02:27:13;;;;;;;3.65;1.20;;;13.00;99.90;;;;;;4981237;28;20054;-58
2022/10/10 02:29:42;;;;;;;1.38;1.23;;;12.70;99.90;;;;;;4979137;28;20035;-59
2022/10/10 02:32:16;;;;;;;3.13;2.25;;;12.30;99.90;;;;;;4982535;28;20375;-59
2022/10/10 02:34:49;;;;;;;5.00;1.88;;;12.00;99.90;;;;;;4977737;28;20065;-59
2022/10/10 02:37:15;;;;;;;3.55;1.65;;;11.80;99.90;;;;;;4976355;28;20038;-59
2022/10/10 02:39:49;;;;;;;2.30;1.60;;;11.70;99.90;;;;;;4980315;28;20026;-59
2022/10/10 02:42:17;;;;;;;2.22;1.60;;;11.50;99.90;;;;;;4977426;28;20081;-58
2022/10/10 02:44:44;;;;;;;6.40;1.40;;;11.40;99.90;;;;;;4987028;28;20026;-59
2022/10/10 02:47:10;;;;;;;4.45;1.42;;;11.60;99.90;;;;;;4977943;28;20081;-58
2022/10/10 02:49:35;;;;;;;5.50;1.70;;;11.70;99.90;;;;;;4984558;28;20386;-58
2022/10/10 02:52:02;;;;;;;3.97;2.13;;;11.80;99.90;;;;;;4982379;28;20113;-58
2022/10/10 02:54:27;;;;;;;3.35;1.35;;;11.70;99.90;;;;;;4984273;28;20022;-58
2022/10/10 02:56:53;;;;;;;3.00;1.10;;;11.90;99.90;;;;;;4984251;28;20034;-59
2022/10/10 02:59:19;;;;;;;3.17;1.15;;;12.20;99.90;;;;;;4986404;28;20022;-59
2022/10/10 03:01:45;;;;;;;5.03;1.05;;;12.20;99.90;;;;;;4989716;28;20038;-58
2022/10/10 03:04:10;;;;;;;1.52;1.10;;;12.40;99.90;;;;;;4979342;28;20403;-58
2022/10/10 03:06:36;;;;;;;1.58;1.02;;;12.60;99.90;;;;;;4985740;28;20038;-59
2022/10/10 03:09:03;;;;;;;2.85;0.70;;;12.70;99.90;;;;;;4990683;28;20033;-58
2022/10/10 03:11:29;;;;;;;4.00;2.30;;;13.20;99.90;;;;;;4984122;28;20026;-59
2022/10/10 03:13:54;;;;;;;2.47;0.63;;;13.60;99.90;;;;;;4985343;28;20026;-59
2022/10/10 03:16:20;;;;;;;1.13;0.50;;;13.70;99.90;;;;;;4977909;28;20628;-60
2022/10/10 03:18:46;;;;;;;2.40;0.82;;;13.60;99.90;;;;;;4981701;28;20026;-58
2022/10/10 03:21:11;;;;;;;3.72;1.00;;;13.40;99.90;;;;;;4982536;28;20038;-63
2022/10/10 03:23:37;;;;;;;6.25;1.00;;;13.40;99.90;;;;;;4984782;28;20066;-59
2022/10/10 03:26:03;;;;;;;4.50;1.17;;;13.40;99.90;;;;;;4978994;28;20049;-59
2022/10/10 03:28:29;;;;;;;5.15;0.68;;;13.30;99.90;;;;;;4988952;28;20106;-57
2022/10/10 03:30:55;;;;;;;1.30;0.50;;;13.30;99.90;;;;;;4977865;28;20463;-59
2022/10/10 03:33:20;;;;;;;2.58;0.70;;;13.40;99.90;;;;;;4986468;28;20668;-62
2022/10/10 03:35:46;;;;;;;1.17;0.82;;;13.30;99.90;;;;;;4975057;28;20022;-59
2022/10/10 03:38:13;;;;;;;1.40;1.25;;;13.50;99.90;;;;;;4971418;28;20089;-59
2022/10/10 03:40:40;;;;;;;2.92;1.35;;;13.50;99.90;;;;;;4989084;28;20030;-58
2022/10/10 03:43:07;;;;;;;0.57;0.55;;;13.50;99.90;;;;;;4979251;23;20126;-59
2022/10/10 03:45:33;;;;;;;1.88;0.73;;;13.50;99.90;;;;;;5000576;28;20096;-57
2022/10/10 03:47:59;;;;;;;1.73;0.65;;;13.40;99.90;;;;;;4991577;28;20442;-57
2022/10/10 03:50:24;;;;;;;3.80;0.88;;;13.40;99.90;;;;;;4995063;28;20126;-57
2022/10/10 03:52:50;;;;;;;2.70;0.95;;;13.40;99.90;;;;;;4993189;28;20061;-57
2022/10/10 03:55:16;;;;;;;3.35;1.00;;;13.50;99.90;;;;;;4995781;28;20145;-57
2022/10/10 03:57:42;;;;;;;2.67;0.88;;;13.70;99.90;;;;;;4989043;28;20122;-57
2022/10/10 04:00:09;;;;;;;0.70;0.65;;;13.80;99.90;;;;;;4997262;28;20034;-58
2022/10/10 04:02:35;;;;;;;3.72;0.95;;;13.70;99.90;;;;;;4996949;28;20025;-57
2022/10/10 04:05:02;;;;;;;2.60;0.80;;;13.70;99.90;;;;;;5000616;28;20026;-58
2022/10/10 04:07:28;;;;;;;3.78;0.82;;;13.80;99.90;;;;;;4998310;28;20026;-58
2022/10/10 04:09:54;;;;;;;7.72;1.48;;;13.90;99.90;;;;;;4992149;28;20022;-58
2022/10/10 04:12:19;;;;;;;3.58;1.10;;;13.90;99.90;;;;;;5000226;28;20044;-57
2022/10/10 04:14:45;;;;;;;2.03;1.20;;;13.90;99.90;;;;;;5000908;28;20023;-58
2022/10/10 04:17:11;;;;;;;5.70;2.13;;;13.90;99.90;;;;;;4995303;28;20034;-57
2022/10/10 04:19:36;;;;;;;3.30;0.88;;;13.90;99.90;;;;;;4991242;28;20034;-58
2022/10/10 04:22:02;;;;;;;4.15;1.13;;;13.90;99.90;;;;;;4997933;28;20033;-57
2022/10/10 04:24:28;;;;;;;2.95;1.35;;;13.80;99.90;;;;;;5005153;28;20105;-56
2022/10/10 04:26:54;;;;;;;4.07;1.38;;;13.60;99.90;;;;;;5001385;28;20034;-57
2022/10/10 04:29:20;;;;;;;4.38;1.70;;;13.50;99.90;;;;;;4991735;28;20033;-57
2022/10/10 04:31:45;;;;;;;5.38;1.33;;;13.50;99.90;;;;;;4991216;28;20394;-57
2022/10/10 04:34:11;;;;;;;3.67;1.30;;;13.50;99.90;;;;;;4992254;28;20109;-57
2022/10/10 04:36:37;;;;;;;2.63;1.25;;;13.50;99.90;;;;;;4999330;28;20045;-57
2022/10/10 04:39:03;;;;;;;2.17;1.27;;;13.50;99.90;;;;;;4991409;28;20034;-57
2022/10/10 04:41:29;;;;;;;2.47;1.20;;;13.50;99.90;;;;;;4999230;28;20026;-58
2022/10/10 04:43:55;;;;;;;3.42;1.42;;;13.50;99.90;;;;;;4991959;28;20051;-57
2022/10/10 04:46:20;;;;;;;5.55;1.38;;;13.40;99.90;;;;;;5004956;28;20556;-57
2022/10/10 04:48:46;;;;;;;4.75;1.30;;;13.30;99.90;;;;;;4993326;28;20061;-57
2022/10/10 04:51:12;;;;;;;8.40;1.75;;;13.30;99.90;;;;;;4998858;28;20040;-57
2022/10/10 04:53:37;;;;;;;5.03;1.85;;;13.30;99.90;;;;;;4997700;28;20089;-56
2022/10/10 04:56:03;;;;;;;2.30;1.88;;;13.30;99.90;;;;;;4991418;28;20076;-57
2022/10/10 04:58:29;;;;;;;3.30;1.50;;;13.20;99.90;;;;;;4993166;28;20514;-56
2022/10/10 05:00:55;;;;;;;5.60;1.20;;;13.20;99.90;;;;;;4990202;28;20104;-57
2022/10/10 05:03:21;;;;;;;5.30;1.27;;;13.30;99.90;;;;;;5015153;28;20030;-58
2022/10/10 05:05:48;;;;;;;1.65;1.20;;;13.40;99.90;;;;;;4994330;28;20030;-58
2022/10/10 05:08:13;;;;;;;5.28;1.45;;;13.70;99.90;;;;;;4988160;28;20098;-57
2022/10/10 05:10:47;;;;;;;5.13;1.92;;;13.70;99.90;;;;;;4997240;28;20045;-56
2022/10/10 05:13:14;;;;;;;3.92;1.05;;;13.60;99.90;;;;;;4990894;28;20044;-58
2022/10/10 05:15:41;;;;;;;3.10;1.30;;;13.40;99.90;;;;;;5000303;28;20021;-57
2022/10/10 05:18:07;;;;;;;4.75;1.52;;;13.30;99.90;;;;;;4990357;28;20036;-57
2022/10/10 05:20:37;;;;;;;2.78;1.77;;;13.30;99.90;;;;;;5000269;28;20552;-55
2022/10/10 05:23:03;;;;;;;4.20;2.40;;;13.20;99.90;;;;;;4992392;28;20022;-57
2022/10/10 05:25:29;;;;;;;5.30;1.95;;;13.10;99.90;;;;;;5000070;28;20029;-57
2022/10/10 05:27:55;;;;;;;5.22;1.98;;;13.10;99.90;;;;;;4998484;28;20450;-58
2022/10/10 05:30:20;;;;;;;2.95;1.40;;;13.20;99.90;;;;;;4990301;28;20026;-57
2022/10/10 05:32:46;;;;;;;4.97;1.85;;;13.30;99.90;;;;;;4990810;28;20383;-58
2022/10/10 05:35:12;;;;;;;3.88;1.88;;;13.20;99.90;;;;;;4991300;28;20037;-57
2022/10/10 05:37:37;;;;;;;4.10;1.73;;;13.20;99.90;;;;;;4990440;28;20497;-57
2022/10/10 05:40:04;;;;;;;2.78;1.80;;;13.20;99.90;;;;;;4991608;28;20453;-57
2022/10/10 05:42:29;;;;;;;4.72;1.95;;;13.20;99.90;;;;;;4990054;28;20550;-56
2022/10/10 05:44:58;;;;;;;10.95;2.10;;;13.20;99.90;;;;;;4989736;28;20153;-57
2022/10/10 05:47:24;;;;;;;3.72;1.67;;;13.10;99.90;;;;;;4989672;28;20030;-57
2022/10/10 05:49:50;;;;;;;4.78;1.73;;;13.10;99.90;;;;;;4986288;28;20031;-57
2022/10/10 05:52:16;;;;;;;5.28;1.90;;;13.10;99.90;;;;;;4998103;28;20128;-57
2022/10/10 05:54:42;;;;;;;3.28;1.85;;;13.10;99.90;;;;;;4990975;28;20073;-57
2022/10/10 05:57:07;;;;;;;8.48;1.70;;;13.10;99.90;;;;;;4997291;28;20479;-57
2022/10/10 05:59:33;;;;;;;4.22;1.80;;;13.10;99.90;;;;;;4988252;28;20031;-57
2022/10/10 06:01:59;;;;;;;5.40;1.70;;;13.10;99.90;;;;;;5001348;28;20038;-57
2022/10/10 06:04:25;;;;;;;2.50;1.95;;;13.10;99.90;;;;;;4984686;28;20031;-58
2022/10/10 06:06:50;;;;;;;3.58;1.77;;;13.10;99.90;;;;;;4988518;28;20104;-58
2022/10/10 06:09:16;;;;;;;5.40;2.03;;;13.10;99.90;;;;;;4995150;28;20070;-57
2022/10/10 06:11:42;;;;;;;9.32;2.25;;;13.10;99.90;;;;;;4995341;28;20406;-58
2022/10/10 06:14:09;;;;;;;7.30;2.03;;;13.00;99.90;;;;;;4992307;28;20030;-57
2022/10/10 06:16:35;;;;;;;6.68;2.28;;;13.00;99.90;;;;;;4989874;28;20028;-57
2022/10/10 06:19:02;;;;;;;2.33;1.48;;;13.00;99.90;;;;;;4991963;28;20154;-56
2022/10/10 06:21:28;;;;;;;2.88;1.77;;;13.00;99.90;;;;;;4992999;28;20149;-57
2022/10/10 06:23:54;;;;;;;6.13;2.55;;;13.10;99.90;;;;;;4990754;28;20467;-56
2022/10/10 06:26:20;;;;;;;2.40;1.80;;;12.90;99.90;;;;;;4990922;28;20096;-56
2022/10/10 06:28:45;;;;;;;3.72;2.45;;;12.90;99.90;;;;;;4992435;28;20065;-56
2022/10/10 06:31:12;;;;;;;5.40;2.10;;;13.20;99.90;;;;;;4994814;28;20081;-56
2022/10/10 06:33:42;;;;;;;3.58;2.25;;;13.00;99.90;;;;;;4992256;28;20030;-57
2022/10/10 06:36:07;;;;;;;3.88;2.17;;;13.10;99.90;;;;;;5006407;28;20022;-56
2022/10/10 06:38:38;;;;;;;4.53;2.35;;;13.20;99.90;;;;;;4990360;28;20030;-56
2022/10/10 06:41:05;;;;;;;5.45;2.10;;;13.20;99.90;;;;;;4986046;28;20113;-56
2022/10/10 06:43:31;;;;;;;8.25;2.42;;;13.30;99.90;;;;;;4999722;28;20046;-57
2022/10/10 06:45:57;;;;;;;5.18;1.90;;;13.40;99.90;;;;;;4996980;28;20026;-57
2022/10/10 06:48:25;;;;;;;3.45;2.30;;;13.50;99.90;;;;;;4991078;28;20046;-57
2022/10/10 06:50:58;;;;;;;4.03;1.90;;;13.40;99.90;;;;;;4994974;28;20022;-58
2022/10/10 06:53:24;;;;;;;4.63;1.90;;;13.40;99.90;;;;;;4987850;28;20027;-57
2022/10/10 06:55:51;;;;;;;3.55;2.05;;;13.50;99.90;;;;;;4989084;28;20094;-57
2022/10/10 06:58:17;;;;;;;6.70;2.53;;;13.50;99.90;;;;;;4996028;28;20486;-58
2022/10/10 07:00:51;;;;;;;4.47;1.85;;;13.40;99.90;;;;;;4988241;28;20037;-55
2022/10/10 07:03:17;;;;;;;3.75;1.35;;;13.50;99.90;;;;;;4976572;28;20395;-57
2022/10/10 07:06:02;;;;;;;3.15;1.38;;;13.60;99.90;;;;;;4989996;28;20045;-56
2022/10/10 07:08:28;;;;;;;1.58;0.93;;;13.50;99.90;;;;;;4982755;28;20122;-58
2022/10/10 07:10:57;;;;;;;3.60;1.20;;;14.00;99.90;;;;;;4989245;28;20073;-57
2022/10/10 07:13:23;;;;;;;1.42;1.00;;;14.00;99.90;;;;;;4998920;28;20022;-57
2022/10/10 07:15:49;;;;;;;5.50;1.55;;;14.00;99.90;;;;;;5005735;28;20026;-56
2022/10/10 07:18:17;;;;;;;2.35;1.17;;;14.00;99.90;;;;;;4999993;28;20049;-54
2022/10/10 07:20:46;;;;;;;2.35;1.08;;;14.00;99.90;;;;;;5006092;28;20088;-57
2022/10/10 07:23:12;;;;;;;6.00;1.60;;;14.00;99.90;;;;;;4998674;28;20022;-57
2022/10/10 07:25:39;;;;;;;5.72;1.77;;;14.00;99.90;;;;;;4992057;28;20026;-60
2022/10/10 07:28:06;;;;;;;6.90;1.60;;;14.00;99.90;;;;;;4993183;28;20030;-59
2022/10/10 07:30:33;;;;;;;4.15;1.58;;;13.90;99.90;;;;;;4993039;28;20490;-60
2022/10/10 07:32:58;;;;;;;5.15;1.77;;;13.90;99.90;;;;;;4991239;28;20394;-59
2022/10/10 07:35:24;;;;;;;6.15;1.27;;;13.90;99.90;;;;;;4994570;28;20018;-60
2022/10/10 07:37:54;;;;;;;4.15;1.42;;;13.80;99.90;;;;;;5004339;28;20057;-61
2022/10/10 07:40:20;;;;;;;3.95;1.88;;;13.80;99.90;;;;;;4997269;28;20018;-61
2022/10/10 07:42:46;;;;;;;4.90;1.67;;;13.80;99.90;;;;;;4991351;28;20034;-60
2022/10/10 07:45:12;;;;;;;2.70;1.60;;;13.80;99.90;;;;;;4998434;28;20096;-59
2022/10/10 07:47:38;;;;;;;3.92;1.60;;;13.80;99.90;;;;;;4991611;28;20026;-59
2022/10/10 07:50:06;;;;;;;9.27;1.98;;;13.70;99.90;;;;;;4987407;28;20038;-60
2022/10/10 07:52:36;;;;;;;5.25;1.77;;;13.80;99.90;;;;;;4996618;28;20092;-58
2022/10/10 07:55:07;;;;;;;3.45;1.77;;;13.80;99.90;;;;;;4993659;28;20113;-57
2022/10/10 07:57:34;;;;;;;9.90;2.45;;;13.80;99.90;;;;;;4991372;28;20030;-58
2022/10/10 08:00:03;;;;;;;4.82;3.40;;;13.80;99.90;;;;;;4997821;28;20487;-57
2022/10/10 08:02:29;;;;;;;7.18;1.80;;;13.80;99.90;;;;;;4991689;28;20030;-58
2022/10/10 08:04:54;;;;;;;8.65;3.03;;;13.80;99.90;;;;;;4993472;28;20037;-57
2022/10/10 08:07:20;;;;;;;6.03;2.95;;;13.80;99.90;;;;;;4998064;28;20030;-58
2022/10/10 08:09:46;;;;;;;11.45;3.08;;;13.90;99.90;;;;;;4996216;28;20102;-57
2022/10/10 08:12:11;;;;;;;5.07;2.40;;;13.90;99.90;;;;;;4997750;28;20056;-58
2022/10/10 08:14:37;;;;;;;9.32;3.35;;;13.90;99.90;;;;;;4997335;28;20029;-58
2022/10/10 08:17:03;;;;;;;7.25;2.35;;;13.80;99.90;;;;;;4992844;28;20038;-58
2022/10/10 08:19:28;;;;;;;6.30;1.95;;;13.80;99.90;;;;;;4994832;28;20397;-58
2022/10/10 08:21:55;;;;;;;2.92;2.13;;;13.80;99.90;;;;;;5004564;28;20068;-57
2022/10/10 08:24:21;;;;;;;6.22;2.13;;;13.70;99.90;;;;;;4989153;28;20034;-58
2022/10/10 08:26:46;;;;;;;3.17;1.95;;;13.70;99.90;;;;;;4992456;28;20137;-58
2022/10/10 08:29:12;;;;;;;3.47;1.95;;;13.70;99.90;;;;;;4996763;28;20038;-57
2022/10/10 08:31:38;;;;;;;5.20;2.85;;;13.70;99.90;;;;;;4996725;28;20034;-59
2022/10/10 08:34:04;;;;;;;5.10;2.03;;;13.60;99.90;;;;;;4992648;28;20030;-58
2022/10/10 08:36:30;;;;;;;3.17;2.15;;;13.50;99.90;;;;;;4997950;28;20022;-57
2022/10/10 08:39:00;;;;;;;3.38;2.42;;;13.50;99.90;;;;;;5003968;28;20514;-57
2022/10/10 08:41:44;;;;;;;4.28;1.58;;;13.60;99.90;;;;;;4989752;28;20038;-57
2022/10/10 08:44:23;;;;;;;5.55;2.10;;;13.50;99.90;;;;;;4980107;28;20129;-57
2022/10/10 08:47:06;;;;;;;2.22;1.48;;;13.40;99.90;;;;;;4989672;28;20081;-57
2022/10/10 08:49:33;;;;;;;2.85;1.33;;;13.30;99.90;;;;;;4993646;28;20026;-57
2022/10/10 08:52:29;;;;;;;2.47;0.98;;;13.20;99.90;;;;;;4992162;28;20038;-59
2022/10/10 08:54:55;;;;;;;2.00;0.80;;;13.00;99.90;;;;;;4991090;28;20040;-58
2022/10/10 08:57:43;;;;;;;3.47;1.13;;;12.90;99.90;;;;;;4989507;28;20034;-61
2022/10/10 09:00:16;;;;;;;4.25;0.80;;;12.90;99.90;;;;;;4988976;28;20357;-59
2022/10/10 09:02:57;;;;;;;2.75;0.80;;;12.80;99.90;;;;;;4992870;28;20430;-58
2022/10/10 09:05:48;;;;;;;2.25;0.52;;;12.80;99.90;;;;;;4995343;28;20030;-58
2022/10/10 09:08:35;;;;;;;1.67;0.45;;;12.80;99.90;;;;;;4990686;28;20037;-60
2022/10/10 09:11:26;;;;;;;3.30;0.68;;;12.80;99.90;;;;;;4988940;28;20033;-58
2022/10/10 09:14:11;;;;;;;3.55;1.08;;;12.90;99.90;;;;;;4989503;28;20052;-59
2022/10/10 09:16:47;;;;;;;0.60;0.32;;;13.00;99.90;;;;;;4988940;28;20391;-58
2022/10/10 09:19:52;;;;;;;2.75;0.50;;;13.20;99.90;;;;;;4999758;28;20041;-59
2022/10/10 09:22:30;;;;;;;3.28;0.47;;;13.20;99.90;;;;;;4992011;28;20034;-58
2022/10/10 09:25:15;;;;;;;2.40;0.70;;;13.10;99.90;;;;;;4992361;28;20387;-58
2022/10/10 09:27:45;;;;;;;3.45;0.70;;;13.10;99.90;;;;;;4996391;28;20165;-55
2022/10/10 09:30:18;;;;;;;3.45;0.60;;;13.10;99.90;;;;;;4991771;28;20117;-58
2022/10/10 09:32:56;;;;;;;1.67;0.45;;;13.10;99.90;;;;;;4988822;28;20085;-58
2022/10/10 09:35:25;;;;;;;4.75;0.50;;;13.10;99.90;;;;;;4977949;28;20113;-58
2022/10/10 09:38:26;;;;;;;3.75;0.60;;;13.10;99.90;;;;;;4996649;28;20109;-58
2022/10/10 09:40:57;;;;;;;3.53;0.40;;;13.10;99.90;;;;;;4970631;28;20034;-58
2022/10/10 09:43:31;;;;;;;0.98;0.75;;;12.90;99.90;;;;;;4988759;28;20425;-58
2022/10/10 09:45:57;;;;;;;2.33;0.82;;;12.80;99.90;;;;;;4996934;28;20022;-58
2022/10/10 09:48:41;;;;;;;5.68;0.50;;;12.90;99.90;;;;;;4979195;28;20051;-58
2022/10/10 09:51:13;;;;;;;2.17;0.65;;;12.90;99.90;;;;;;4995432;28;20030;-59
2022/10/10 09:53:42;;;;;;;;;;;13.00;99.90;;;;;;4991125;28;20116;-58
2022/10/10 09:56:19;;;;;;;2.78;1.05;;;13.10;99.90;;;;;;4990797;28;20061;-59
2022/10/10 09:58:47;;;;;;;4.25;0.95;;;13.20;99.90;;;;;;4989564;28;20520;-58
2022/10/10 10:01:14;;;;;;;1.92;0.68;;;13.40;99.90;;;;;;4996062;28;20060;-58
2022/10/10 10:03:41;;;;;;;2.30;0.60;;;13.40;99.90;;;;;;4992731;28;20113;-58
2022/10/10 10:06:14;;;;;;;3.75;1.05;;;13.50;99.90;;;;;;4990602;28;20037;-58
2022/10/10 10:08:41;;;;;;;4.82;1.13;;;13.60;99.90;;;;;;4987741;28;20022;-58
2022/10/10 10:11:28;;;;;;;4.57;0.85;;;13.70;99.90;;;;;;4991065;28;20092;-58
2022/10/10 10:13:55;;;;;;;5.07;0.70;;;13.90;99.90;;;;;;4988970;28;20069;-58
2022/10/10 10:16:33;;;;;;;4.45;0.82;;;13.90;99.90;;;;;;4982799;28;20497;-58
2022/10/10 10:18:59;;;;;;;1.52;0.47;;;13.90;99.90;;;;;;4999417;28;20030;-58
2022/10/10 10:21:26;;;;;;;2.35;0.82;;;13.90;99.90;;;;;;4986762;28;20033;-57
2022/10/10 10:24:00;;;;;;;1.40;0.47;;;14.00;99.90;;;;;;4994607;28;20095;-58
2022/10/10 10:26:48;;;;;;;5.60;0.70;;;14.10;99.90;;;;;;4993678;28;20478;-57
2022/10/10 10:29:26;;;;;;;1.25;0.30;;;14.30;99.90;;;;;;4992561;28;20038;-57
2022/10/10 10:31:56;;;;;;;1.65;0.50;;;14.40;99.90;;;;;;4988420;28;20026;-58
2022/10/10 10:34:39;;;;;;;4.57;0.68;;;14.30;99.90;;;;;;5000707;28;20133;-57
2022/10/10 10:37:21;;;;;;;9.88;0.77;;;14.50;99.90;;;;;;4988326;28;20045;-59
2022/10/10 10:40:14;;;;;;;6.00;0.68;;;14.60;99.90;;;;;;4997308;28;20100;-57
2022/10/10 10:43:12;;;;;;;3.63;0.60;;;14.70;99.90;;;;;;4986679;28;20474;-58
2022/10/10 10:45:41;;;;;;;5.00;0.85;;;14.60;99.90;;;;;;4981086;28;20047;-58
2022/10/10 10:48:14;;;;;;;11.32;1.02;;;14.70;99.90;;;;;;4992507;28;20053;-60
2022/10/10 10:50:59;;;;;;;4.32;0.52;;;14.70;99.90;;;;;;5001154;28;20073;-58
2022/10/10 10:53:49;;;;;;;8.27;0.88;;;14.80;99.90;;;;;;4998678;28;20040;-59
2022/10/10 10:56:27;;;;;;;2.05;0.57;;;14.90;99.90;;;;;;4983909;28;20038;-59
2022/10/10 10:59:15;;;;;;;4.10;0.60;;;15.00;99.90;;;;;;4981669;28;20031;-58
2022/10/10 11:01:50;;;;;;;8.05;0.73;;;14.80;99.90;;;;;;4989795;28;20105;-59
2022/10/10 11:04:15;;;;;;;5.43;1.00;;;15.00;99.90;;;;;;4982896;28;20164;-58
2022/10/10 11:06:47;;;;;;;3.78;0.60;;;15.30;99.90;;;;;;4999002;28;20029;-58
2022/10/10 11:09:40;;;;;;;4.93;0.68;;;15.60;99.90;;;;;;4992608;28;20026;-58
2022/10/10 11:12:44;;;;;;;6.20;0.82;;;15.70;99.90;;;;;;5000062;28;20424;-58
2022/10/10 11:15:24;;;;;;;6.47;0.57;;;15.60;99.90;;;;;;5007806;28;20390;-60
2022/10/10 11:18:15;;;;;;;5.25;0.40;;;15.80;99.90;;;;;;4994210;28;20034;-58
2022/10/10 11:20:53;;;;;;;3.50;0.53;;;16.50;99.90;;;;;;4997985;28;20033;-58
2022/10/10 11:23:29;;;;;;;6.40;1.02;;;16.80;99.90;;;;;;4992661;28;20419;-58
2022/10/10 11:26:00;;;;;;;5.68;0.57;;;16.80;99.90;;;;;;4987578;28;20042;-57
2022/10/10 11:28:39;;;;;;;6.03;0.70;;;16.50;99.90;;;;;;4986028;28;20502;-57
2022/10/10 11:31:12;;;;;;;5.00;0.65;;;16.20;99.90;;;;;;4995311;28;20033;-58
2022/10/10 11:33:44;;;;;;;4.15;0.93;;;15.90;99.90;;;;;;4995511;28;20026;-58
2022/10/10 11:36:17;;;;;;;6.80;0.73;;;15.80;99.90;;;;;;4989468;28;20026;-58
2022/10/10 11:38:59;;;;;;;1.70;0.50;;;15.40;99.90;;;;;;4994730;28;20569;-57
2022/10/10 11:41:27;;;;;;;4.53;0.70;;;15.10;99.90;;;;;;4985903;28;20066;-57
2022/10/10 11:44:12;;;;;;;1.92;0.40;;;15.00;99.90;;;;;;5003091;28;20145;-58
2022/10/10 11:46:42;;;;;;;7.63;1.30;;;15.90;99.90;;;;;;4991084;28;20034;-58
2022/10/10 11:49:08;;;;;;;4.45;0.90;;;16.80;99.90;;;;;;4981817;28;20121;-58
2022/10/10 11:51:56;;;;;;;6.70;0.88;;;17.30;99.90;;;;;;4990961;28;20133;-58
2022/10/10 11:54:43;;;;;;;3.53;1.27;;;17.80;99.90;;;;;;4985885;28;20474;-58
2022/10/10 11:57:25;;;;;;;4.28;0.82;;;18.40;99.90;;;;;;4988116;28;20030;-58
2022/10/10 12:00:00;;;;;;;5.28;0.75;;;18.70;99.90;;;;;;4992132;28;20026;-59
2022/10/10 12:02:39;;;;;;;1.95;0.43;;;19.20;99.90;;;;;;4991824;28;20029;-58
2022/10/10 12:05:06;;;;;;;5.75;1.67;;;19.10;99.90;;;;;;4987308;28;20038;-58
2022/10/10 12:07:41;;;;;;;4.90;0.82;;;19.20;99.90;;;;;;4993221;28;20018;-58
2022/10/10 12:10:30;;;;;;;2.80;0.80;;;19.30;99.90;;;;;;4991072;28;20116;-58
2022/10/10 12:13:01;;;;;;;4.05;1.20;;;19.40;99.90;;;;;;4991412;28;20487;-58
2022/10/10 12:15:31;;;;;;;3.08;0.80;;;19.60;99.90;;;;;;4997317;28;20153;-58
2022/10/10 12:17:57;;;;;;;2.25;0.50;;;19.80;99.90;;;;;;4992468;28;20121;-58
2022/10/10 12:20:36;;;;;;;5.13;0.63;;;20.00;99.90;;;;;;4989507;28;21018;-58
2022/10/10 12:23:13;;;;;;;2.83;1.17;;;19.80;99.90;;;;;;4990228;28;20033;-58
2022/10/10 12:25:41;;;;;;;6.10;1.10;;;19.70;99.90;;;;;;4987735;28;20022;-57
2022/10/10 12:28:12;;;;;;;4.13;0.80;;;19.80;99.90;;;;;;5001534;28;20462;-57
2022/10/10 12:30:53;;;;;;;3.78;0.77;;;20.20;99.90;;;;;;4999907;28;20088;-58
2022/10/10 12:33:43;;;;;;;3.88;0.70;;;20.60;99.90;;;;;;4994375;28;20066;-58
2022/10/10 12:36:18;;;;;;;3.25;0.73;;;20.70;99.90;;;;;;4988844;28;20042;-58
2022/10/10 12:39:05;;;;;;;3.58;0.90;;;20.50;99.20;;;;;;4995617;28;20030;-57
2022/10/10 12:41:49;;;;;;;5.78;0.82;;;20.50;98.50;;;;;;4994762;28;20026;-59
2022/10/10 12:44:24;;;;;;;2.38;0.60;;;20.50;98.50;;;;;;4981139;28;20154;-58
2022/10/10 12:47:14;;;;;;;3.70;0.50;;;20.30;99.10;;;;;;4991501;28;20033;-57
2022/10/10 12:49:58;;;;;;;2.38;0.90;;;20.40;97.60;;;;;;4999160;28;20030;-58
2022/10/10 12:52:36;;;;;;;3.35;0.70;;;20.40;97.20;;;;;;4980612;28;20034;-57
2022/10/10 12:55:15;;;;;;;5.20;0.90;;;20.80;97.90;;;;;;4998676;28;20049;-58
2022/10/10 12:57:44;;;;;;;4.50;1.10;;;20.80;96.80;;;;;;4992299;28;20027;-58
2022/10/10 13:00:17;;;;;;;2.47;0.68;;;21.40;94.70;;;;;;4992409;28;20434;-58
2022/10/10 13:02:46;;;;;;;2.38;0.80;;;21.70;93.60;;;;;;4994245;28;20035;-59
2022/10/10 13:05:17;;;;;;;5.13;0.98;;;21.60;93.00;;;;;;5000712;28;20037;-57
2022/10/10 13:07:44;;;;;;;4.90;0.70;;;21.80;92.20;;;;;;4998879;28;20050;-57
2022/10/10 13:10:27;;;;;;;4.20;0.80;;;22.00;89.70;;;;;;4987257;28;20030;-57